createdAt,value
2023-03-06T00:01:37.349Z,9.57
2023-03-06T00:04:38.639Z,9.30
2023-03-06T00:07:39.961Z,10.70
2023-03-06T00:10:41.251Z,9.32
2023-03-06T00:13:42.554Z,9.02
2023-03-06T00:16:43.873Z,9.47
2023-03-06T00:19:45.162Z,9.20
2023-03-06T00:22:46.454Z,9.85
2023-03-06T00:25:47.765Z,9.07
2023-03-06T00:28:49.046Z,8.48
2023-03-06T00:31:50.429Z,8.53
2023-03-06T00:34:51.749Z,8.73
2023-03-06T00:37:53.071Z,8.80
2023-03-06T00:40:54.354Z,8.70
2023-03-06T00:43:55.634Z,8.23
2023-03-06T00:46:56.967Z,8.50
2023-03-06T00:49:58.261Z,7.75
2023-03-06T00:52:59.595Z,7.88
2023-03-06T00:56:00.896Z,7.88
2023-03-06T00:59:02.200Z,8.52
2023-03-06T01:02:03.545Z,7.30
2023-03-06T01:05:04.885Z,7.68
2023-03-06T01:08:06.189Z,8.63
2023-03-06T01:11:07.489Z,8.20
2023-03-06T01:14:08.801Z,7.85
2023-03-06T01:17:10.127Z,8.20
2023-03-06T01:20:11.429Z,7.78
2023-03-06T01:23:12.780Z,8.05
2023-03-06T01:26:14.107Z,8.10
2023-03-06T01:29:15.426Z,7.63
2023-03-06T01:32:16.748Z,7.40
2023-03-06T01:35:18.104Z,7.22
2023-03-06T01:38:19.436Z,7.57
2023-03-06T01:41:20.746Z,7.10
2023-03-06T01:44:22.040Z,7.28
2023-03-06T01:47:23.337Z,6.90
2023-03-06T01:50:24.624Z,7.32
2023-03-06T01:53:25.912Z,6.75
2023-03-06T01:56:27.282Z,6.70
2023-03-06T01:59:28.588Z,7.00
2023-03-06T02:02:29.917Z,7.50
2023-03-06T02:05:31.242Z,7.18
2023-03-06T02:08:32.532Z,7.38
2023-03-06T02:11:33.876Z,7.10
2023-03-06T02:14:35.224Z,6.90
2023-03-06T02:17:36.543Z,7.10
2023-03-06T02:20:37.850Z,6.32
2023-03-06T02:23:39.170Z,6.68
2023-03-06T02:26:40.448Z,6.65
2023-03-06T02:29:41.758Z,6.40
2023-03-06T02:32:43.046Z,6.87
2023-03-06T02:35:44.415Z,6.65
2023-03-06T02:38:45.770Z,6.70
2023-03-06T02:41:47.067Z,6.35
2023-03-06T02:44:48.382Z,6.13
2023-03-06T02:47:49.661Z,5.57
2023-03-06T02:50:50.963Z,6.57
2023-03-06T02:53:52.254Z,5.97
2023-03-06T02:56:53.628Z,5.68
2023-03-06T02:59:54.925Z,6.20
2023-03-06T03:02:56.234Z,5.83
2023-03-06T03:05:57.532Z,5.75
2023-03-06T03:08:58.844Z,5.82
2023-03-06T03:12:00.124Z,6.15
2023-03-06T03:15:01.432Z,5.80
2023-03-06T03:18:02.715Z,6.20
2023-03-06T03:21:04.011Z,6.13
2023-03-06T03:24:05.295Z,5.38
2023-03-06T03:27:06.601Z,5.50
2023-03-06T03:30:07.912Z,6.50
2023-03-06T03:33:09.211Z,5.60
2023-03-06T03:36:10.487Z,5.60
2023-03-06T03:39:11.780Z,5.35
2023-03-06T03:42:13.074Z,5.32
2023-03-06T03:45:14.368Z,5.60
2023-03-06T03:48:15.657Z,5.50
2023-03-06T03:51:16.927Z,5.55
2023-03-06T03:54:18.232Z,4.90
2023-03-06T03:57:19.528Z,5.25
2023-03-06T04:00:20.825Z,5.40
2023-03-06T04:03:22.128Z,5.07
2023-03-06T04:06:23.411Z,5.07
2023-03-06T04:09:24.713Z,5.40
2023-03-06T04:12:26.010Z,5.35
2023-03-06T04:15:27.316Z,4.95
2023-03-06T04:18:28.616Z,4.23
2023-03-06T04:21:29.926Z,5.20
2023-03-06T04:24:31.212Z,5.20
2023-03-06T04:27:32.517Z,4.85
2023-03-06T04:30:33.825Z,4.50
2023-03-06T04:33:35.127Z,5.20
2023-03-06T04:36:36.416Z,4.80
2023-03-06T04:39:37.735Z,5.20
2023-03-06T04:42:39.081Z,4.75
2023-03-06T04:45:40.397Z,5.30
2023-03-06T04:48:41.720Z,4.50
2023-03-06T04:51:43.001Z,4.75
2023-03-06T04:54:44.271Z,5.10
2023-03-06T04:57:45.558Z,4.47
2023-03-06T05:00:46.940Z,5.13
2023-03-06T05:03:48.309Z,4.90
2023-03-06T05:06:49.593Z,5.10
2023-03-06T05:09:50.891Z,5.25
2023-03-06T05:12:52.179Z,5.03
2023-03-06T05:15:53.477Z,4.78
2023-03-06T05:18:54.757Z,5.23
2023-03-06T05:21:56.076Z,4.53
2023-03-06T05:24:57.391Z,5.07
2023-03-06T05:27:58.669Z,4.97
2023-03-06T05:31:01.659Z,5.13
2023-03-06T05:34:04.279Z,5.27
2023-03-06T05:37:05.587Z,4.93
2023-03-06T05:40:06.888Z,5.30
2023-03-06T05:43:08.197Z,6.35
2023-03-06T05:46:09.482Z,5.65
2023-03-06T05:49:10.823Z,4.93
2023-03-06T05:52:12.117Z,6.05
2023-03-06T05:55:13.455Z,5.57
2023-03-06T05:58:14.778Z,5.20
2023-03-06T06:01:16.076Z,5.00
2023-03-06T06:04:17.376Z,5.13
2023-03-06T06:07:18.697Z,5.13
2023-03-06T06:10:19.962Z,4.95
2023-03-06T06:13:21.254Z,4.60
2023-03-06T06:16:22.537Z,5.50
2023-03-06T06:19:23.823Z,4.57
2023-03-06T06:22:25.133Z,4.82
2023-03-06T06:25:26.442Z,5.35
2023-03-06T06:28:27.769Z,5.05
2023-03-06T06:31:29.118Z,4.35
2023-03-06T06:34:30.439Z,4.63
2023-03-06T06:37:31.742Z,4.80
2023-03-06T06:40:33.064Z,5.68
2023-03-06T06:43:34.356Z,4.90
2023-03-06T06:49:57.176Z,7.10
2023-03-06T06:52:58.493Z,5.53
2023-03-06T06:55:59.773Z,8.32
2023-03-06T06:59:15.342Z,6.40
2023-03-06T07:02:17.234Z,6.57
2023-03-06T07:05:20.227Z,5.87
2023-03-06T07:08:22.463Z,7.07
2023-03-06T07:11:23.790Z,5.95
2023-03-06T07:14:25.084Z,6.30
2023-03-06T07:17:26.370Z,6.03
2023-03-06T07:20:27.734Z,6.30
2023-03-06T07:23:29.083Z,5.95
2023-03-06T07:26:32.077Z,6.32
2023-03-06T07:29:34.800Z,6.15
2023-03-06T07:32:36.162Z,6.45
2023-03-06T07:35:37.554Z,5.23
2023-03-06T07:38:38.895Z,6.75
2023-03-06T07:41:40.230Z,5.68
2023-03-06T07:44:41.518Z,4.70
2023-03-06T07:47:42.833Z,5.95
2023-03-06T07:50:44.312Z,4.97
2023-03-06T07:53:45.624Z,6.00
2023-03-06T07:56:47.038Z,5.10
2023-03-06T07:59:48.325Z,4.65
2023-03-06T08:02:49.673Z,4.82
2023-03-06T08:05:51.009Z,4.97
2023-03-06T08:08:52.311Z,5.22
2023-03-06T08:11:53.614Z,5.28
2023-03-06T08:14:54.934Z,5.10
2023-03-06T08:17:56.233Z,4.70
2023-03-06T08:20:57.540Z,5.97
2023-03-06T08:23:58.939Z,4.45
2023-03-06T08:27:00.283Z,5.20
2023-03-06T08:30:01.571Z,4.90
2023-03-06T08:33:02.974Z,5.32
2023-03-06T08:36:04.291Z,4.40
2023-03-06T08:39:05.614Z,4.65
2023-03-06T08:42:06.925Z,5.10
2023-03-06T08:45:08.230Z,5.70
2023-03-06T08:48:09.538Z,4.22
2023-03-06T08:51:10.834Z,3.80
2023-03-06T08:54:12.142Z,4.75
2023-03-06T08:57:14.507Z,6.88
2023-03-06T09:00:15.860Z,7.65
2023-03-06T09:03:17.184Z,6.00
2023-03-06T09:06:18.530Z,6.40
2023-03-06T09:09:19.831Z,6.55
2023-03-06T09:12:21.119Z,6.93
2023-03-06T09:15:22.435Z,5.90
2023-03-06T09:18:23.723Z,6.55
2023-03-06T09:21:25.063Z,5.60
2023-03-06T09:24:26.428Z,5.75
2023-03-06T09:27:27.724Z,7.10
2023-03-06T09:30:29.143Z,6.55
2023-03-06T09:33:30.461Z,5.80
2023-03-06T09:36:34.399Z,6.37
2023-03-06T09:39:39.169Z,6.63
2023-03-06T09:42:40.483Z,6.30
2023-03-06T09:45:41.832Z,6.43
2023-03-06T09:48:43.164Z,6.60
2023-03-06T09:51:44.482Z,6.00
2023-03-06T09:54:45.800Z,6.25
2023-03-06T09:57:47.091Z,5.93
2023-03-06T10:00:48.380Z,5.32
2023-03-06T10:03:49.702Z,5.40
2023-03-06T10:06:51.021Z,6.50
2023-03-06T10:09:52.312Z,5.88
2023-03-06T10:12:53.631Z,5.85
2023-03-06T10:15:54.951Z,5.20
2023-03-06T10:18:56.292Z,7.13
2023-03-06T10:21:57.603Z,6.17
2023-03-06T10:24:58.896Z,5.78
2023-03-06T10:28:00.196Z,5.85
2023-03-06T10:31:01.534Z,5.95
2023-03-06T10:34:02.894Z,10.18
2023-03-06T10:37:04.187Z,9.80
2023-03-06T10:40:05.522Z,7.78
2023-03-06T10:43:11.902Z,7.95
2023-03-06T10:46:13.641Z,7.25
2023-03-06T10:49:14.995Z,7.80
2023-03-06T10:52:16.326Z,6.47
2023-03-06T10:55:17.677Z,6.38
2023-03-06T10:58:18.961Z,6.60
2023-03-06T11:01:20.330Z,6.43
2023-03-06T11:04:21.695Z,6.97
2023-03-06T11:07:23.038Z,6.40
2023-03-06T11:10:24.464Z,5.65
2023-03-06T11:13:25.754Z,6.35
2023-03-06T11:16:27.071Z,5.97
2023-03-06T11:19:28.461Z,5.72
2023-03-06T11:22:29.770Z,6.60
2023-03-06T11:25:31.094Z,6.65
2023-03-06T11:28:32.397Z,6.50
2023-03-06T11:31:33.742Z,5.75
2023-03-06T11:34:35.187Z,6.03
2023-03-06T11:37:36.479Z,6.60
2023-03-06T11:40:37.791Z,6.05
2023-03-06T11:43:39.083Z,5.93
2023-03-06T11:46:40.534Z,6.45
2023-03-06T11:49:41.856Z,6.60
2023-03-06T11:52:43.164Z,5.57
2023-03-06T11:55:44.472Z,5.85
2023-03-06T11:58:45.767Z,5.63
2023-03-06T12:01:47.137Z,5.53
2023-03-06T12:04:48.458Z,5.70
2023-03-06T12:07:49.780Z,6.53
2023-03-06T12:10:51.963Z,6.35
2023-03-06T12:13:53.708Z,5.88
2023-03-06T12:16:55.030Z,6.00
2023-03-06T12:19:56.368Z,5.85
2023-03-06T12:23:14.185Z,6.30
2023-03-06T12:26:16.503Z,5.38
2023-03-06T12:29:17.804Z,5.68
2023-03-06T12:32:19.209Z,5.82
2023-03-06T12:35:20.644Z,6.00
2023-03-06T12:38:21.967Z,5.10
2023-03-06T12:41:23.241Z,5.30
2023-03-06T12:44:24.576Z,5.80
2023-03-06T12:47:25.914Z,5.15
2023-03-06T12:50:27.236Z,6.38
2023-03-06T12:53:28.564Z,4.87
2023-03-06T12:56:29.877Z,5.65
2023-03-06T12:59:31.180Z,5.43
2023-03-06T13:02:32.711Z,5.32
2023-03-06T13:05:34.032Z,5.78
2023-03-06T13:08:35.343Z,5.63
2023-03-06T13:11:36.623Z,5.85
2023-03-06T13:14:42.276Z,6.47
2023-03-06T13:17:49.857Z,6.55
2023-03-06T13:20:51.156Z,6.72
2023-03-06T13:23:52.462Z,6.20
2023-03-06T13:26:53.791Z,7.22
2023-03-06T13:29:55.110Z,6.68
2023-03-06T13:32:56.400Z,5.90
2023-03-06T13:35:57.734Z,5.80
2023-03-06T13:38:59.059Z,5.97
2023-03-06T13:42:00.357Z,7.30
2023-03-06T13:45:01.674Z,5.78
2023-03-06T13:51:24.305Z,4.85
2023-03-06T13:54:25.606Z,5.53
2023-03-06T13:57:26.917Z,5.00
2023-03-06T14:00:28.208Z,5.85
2023-03-06T14:03:29.542Z,5.45
2023-03-06T14:06:30.896Z,6.80
2023-03-06T14:09:32.196Z,5.50
2023-03-06T14:12:33.484Z,6.18
2023-03-06T14:15:34.921Z,5.97
2023-03-06T14:18:36.495Z,5.63
2023-03-06T14:21:37.853Z,5.65
2023-03-06T14:24:39.149Z,6.23
2023-03-06T14:27:40.522Z,5.78
2023-03-06T14:30:41.837Z,5.63
2023-03-06T14:33:43.126Z,5.60
2023-03-06T14:36:44.436Z,5.50
2023-03-06T14:39:45.759Z,6.53
2023-03-06T14:42:47.115Z,5.82
2023-03-06T14:45:48.428Z,5.70
2023-03-06T14:48:49.739Z,6.47
2023-03-06T14:51:51.082Z,6.15
2023-03-06T14:54:52.359Z,6.43
2023-03-06T14:57:53.673Z,5.90
2023-03-06T15:00:54.963Z,5.95
2023-03-06T15:03:56.552Z,6.70
2023-03-06T15:06:57.935Z,5.75
2023-03-06T15:09:59.257Z,6.07
2023-03-06T15:13:00.579Z,6.03
2023-03-06T15:16:01.956Z,6.13
2023-03-06T15:19:03.337Z,6.65
2023-03-06T15:22:04.758Z,5.60
2023-03-06T15:25:06.055Z,5.53
2023-03-06T15:28:07.397Z,6.05
2023-03-06T15:31:08.673Z,8.45
2023-03-06T15:34:09.994Z,7.65
2023-03-06T15:37:11.302Z,7.18
2023-03-06T15:40:12.620Z,6.27
2023-03-06T15:43:13.954Z,6.40
2023-03-06T15:46:15.252Z,7.18
2023-03-06T15:49:16.874Z,7.15
2023-03-06T15:52:18.228Z,6.80
2023-03-06T15:55:20.417Z,6.70
2023-03-06T15:58:21.839Z,7.32
2023-03-06T16:01:23.197Z,7.00
2023-03-06T16:04:24.824Z,6.68
2023-03-06T16:07:28.047Z,7.25
2023-03-06T16:10:29.851Z,7.13
2023-03-06T16:13:31.162Z,6.40
2023-03-06T16:16:32.535Z,6.82
2023-03-06T16:19:33.951Z,6.93
2023-03-06T16:22:35.392Z,7.50
2023-03-06T16:25:37.055Z,8.20
2023-03-06T16:28:38.919Z,7.25
2023-03-06T16:31:40.439Z,7.75
2023-03-06T16:34:42.852Z,6.88
2023-03-06T16:37:44.445Z,6.82
2023-03-06T16:40:45.854Z,6.80
2023-03-06T16:43:47.518Z,6.38
2023-03-06T16:46:48.953Z,6.30
2023-03-06T16:49:50.661Z,6.53
2023-03-06T16:52:52.127Z,7.03
2023-03-06T16:55:53.436Z,6.80
2023-03-06T16:58:54.732Z,7.63
2023-03-06T17:01:56.039Z,8.43
2023-03-06T17:04:57.355Z,7.60
2023-03-06T17:07:59.043Z,8.43
2023-03-06T17:11:00.740Z,8.03
2023-03-06T17:14:02.522Z,7.80
2023-03-06T17:17:03.921Z,7.25
2023-03-06T17:20:06.436Z,7.85
2023-03-06T17:23:07.831Z,12.80
2023-03-06T17:26:09.550Z,15.13
2023-03-06T17:29:11.356Z,15.57
2023-03-06T17:32:12.889Z,15.80
2023-03-06T17:35:14.295Z,14.57
2023-03-06T17:38:15.703Z,15.25
2023-03-06T17:41:17.201Z,12.27
2023-03-06T17:44:18.663Z,12.93
2023-03-06T17:47:21.409Z,13.13
2023-03-06T17:50:22.917Z,12.95
2023-03-06T17:53:24.308Z,11.68
2023-03-06T17:56:26.034Z,12.37
2023-03-06T17:59:28.322Z,12.55
2023-03-06T18:02:31.492Z,12.05
2023-03-06T18:05:33.272Z,11.65
2023-03-06T18:08:35.069Z,11.30
2023-03-06T18:11:36.839Z,11.07
2023-03-06T18:14:38.712Z,11.35
2023-03-06T18:17:40.496Z,11.57
2023-03-06T18:20:47.229Z,10.57
2023-03-06T18:23:49.188Z,11.70
2023-03-06T18:26:51.291Z,11.47
2023-03-06T18:29:53.244Z,11.25
2023-03-06T18:32:55.121Z,11.73
2023-03-06T18:35:57.432Z,12.15
2023-03-06T18:38:59.838Z,11.60
2023-03-06T18:42:01.652Z,12.03
2023-03-06T18:45:03.561Z,12.60
2023-03-06T18:48:05.403Z,11.35
2023-03-06T18:51:07.235Z,11.65
2023-03-06T18:54:09.037Z,12.05
2023-03-06T18:57:12.083Z,12.43
2023-03-06T19:00:13.831Z,11.75
2023-03-06T19:03:15.678Z,11.30
2023-03-06T19:06:18.615Z,12.60
2023-03-06T19:09:20.021Z,12.77
2023-03-06T19:12:21.765Z,10.67
2023-03-06T19:15:23.640Z,11.73
2023-03-06T19:18:25.421Z,11.15
2023-03-06T19:21:27.250Z,10.23
2023-03-06T19:24:29.070Z,10.10
2023-03-06T19:27:30.849Z,10.37
2023-03-06T19:30:32.714Z,9.88
2023-03-06T19:33:34.592Z,10.70
2023-03-06T19:36:41.056Z,10.07
2023-03-06T19:39:43.936Z,9.60
2023-03-06T19:42:45.345Z,9.60
2023-03-06T19:45:47.118Z,10.40
2023-03-06T19:48:48.900Z,10.30
2023-03-06T19:51:50.747Z,10.00
2023-03-06T19:54:53.121Z,9.45
2023-03-06T19:57:54.526Z,9.80
2023-03-06T20:00:56.320Z,9.88
2023-03-06T20:03:58.454Z,10.63
2023-03-06T20:07:00.033Z,9.65
2023-03-06T20:10:01.727Z,9.88
2023-03-06T20:13:03.528Z,8.57
2023-03-06T20:16:07.425Z,8.30
2023-03-06T20:19:08.890Z,8.80
2023-03-06T20:22:10.620Z,9.05
2023-03-06T20:25:12.480Z,8.80
2023-03-06T20:28:14.300Z,8.33
2023-03-06T20:31:16.078Z,8.95
2023-03-06T20:34:20.480Z,9.13
2023-03-06T20:37:24.490Z,8.80
2023-03-06T20:40:27.155Z,8.18
2023-03-06T20:43:29.029Z,8.50
2023-03-06T20:46:30.873Z,8.00
2023-03-06T20:49:32.772Z,7.85
2023-03-06T20:52:34.565Z,8.48
2023-03-06T20:55:36.520Z,8.82
2023-03-06T20:58:38.182Z,7.97
2023-03-06T21:01:40.102Z,8.52
2023-03-06T21:04:42.862Z,8.60
2023-03-06T21:07:44.274Z,8.40
2023-03-06T21:10:45.595Z,8.93
2023-03-06T21:13:46.938Z,8.23
2023-03-06T21:16:48.261Z,8.50
2023-03-06T21:19:49.603Z,8.68
2023-03-06T21:22:50.910Z,8.43
2023-03-06T21:25:52.230Z,7.63
2023-03-06T21:28:53.527Z,7.77
2023-03-06T21:31:54.838Z,7.65
2023-03-06T21:34:56.126Z,8.27
2023-03-06T21:37:57.433Z,7.97
2023-03-06T21:40:58.756Z,7.13
2023-03-06T21:44:00.089Z,7.47
2023-03-06T21:47:01.439Z,7.70
2023-03-06T21:50:02.734Z,8.25
2023-03-06T21:53:04.031Z,7.68
2023-03-06T21:56:05.336Z,7.57
2023-03-06T21:59:06.657Z,8.07
2023-03-06T22:02:07.945Z,8.27
2023-03-06T22:05:09.249Z,8.20
2023-03-06T22:08:10.547Z,8.13
2023-03-06T22:11:11.861Z,7.15
2023-03-06T22:14:13.166Z,7.67
2023-03-06T22:17:14.481Z,6.60
2023-03-06T22:20:15.779Z,7.72
2023-03-06T22:23:17.069Z,7.13
2023-03-06T22:26:18.384Z,7.95
2023-03-06T22:29:19.684Z,7.17
2023-03-06T22:32:21.057Z,7.25
2023-03-06T22:35:22.412Z,7.68
2023-03-06T22:38:23.716Z,7.03
2023-03-06T22:41:25.006Z,7.35
2023-03-06T22:44:26.278Z,7.07
2023-03-06T22:47:27.584Z,6.80
2023-03-06T22:50:28.868Z,7.43
2023-03-06T22:53:30.166Z,6.50
2023-03-06T22:56:31.455Z,6.82
2023-03-06T22:59:32.762Z,6.60
2023-03-06T23:02:34.045Z,6.80
2023-03-06T23:05:35.351Z,7.22
2023-03-06T23:08:36.650Z,6.55
2023-03-06T23:11:37.945Z,7.22
2023-03-06T23:14:39.269Z,6.73
2023-03-06T23:17:40.605Z,6.00
2023-03-06T23:20:41.888Z,6.78
2023-03-06T23:23:43.196Z,6.72
2023-03-06T23:26:44.493Z,6.72
2023-03-06T23:29:45.791Z,6.20
2023-03-06T23:32:47.103Z,6.55
2023-03-06T23:35:48.422Z,6.30
2023-03-06T23:38:49.760Z,6.47
2023-03-06T23:41:51.044Z,5.80
2023-03-06T23:44:52.347Z,6.57
2023-03-06T23:47:53.667Z,5.95
2023-03-06T23:50:55.047Z,6.82
2023-03-06T23:53:56.319Z,6.35
2023-03-06T23:56:57.647Z,6.07
2023-03-06T23:59:58.941Z,5.50
